Time;durP1;ratioP1;P1;durP2;ratioP2;P2;SDS_P1;SDS_P2;PMS_P1;PMS_P2;Temp;Humidity;BMP_temperature;BMP_pressure;BME280_temperature;BME280_humidity;BME280_pressure;Samples;Min_cycle;Max_cycle;Signal;HPM_P1;HPM_P2
2024/03/13 00:04:05;;;;;;;8.90;7.90;;;10.60;38.70;;;;;;10344735;28;20690;-70
2024/03/13 00:09:08;;;;;;;9.83;8.23;;;10.70;39.00;;;;;;10353188;28;20246;-70
2024/03/13 00:14:11;;;;;;;10.67;8.40;;;10.70;38.70;;;;;;10365884;28;20222;-70
2024/03/13 00:19:16;;;;;;;9.60;8.07;;;10.70;38.80;;;;;;10337008;28;20234;-70
2024/03/13 00:24:19;;;;;;;9.37;7.73;;;10.70;39.00;;;;;;10340393;28;20308;-70
2024/03/13 00:29:22;;;;;;;8.17;7.30;;;10.70;38.70;;;;;;10342351;28;21099;-70
2024/03/13 00:34:26;;;;;;;8.37;7.43;;;10.80;38.60;;;;;;10342664;28;20680;-70
2024/03/13 00:39:30;;;;;;;8.80;7.90;;;10.80;39.00;;;;;;10354158;28;20237;-70
2024/03/13 00:44:34;;;;;;;9.57;8.20;;;10.90;38.80;;;;;;10381090;28;20226;-70
2024/03/13 00:49:42;;;;;;;8.50;7.07;;;11.00;38.70;;;;;;10381565;28;20312;-70
2024/03/13 00:54:46;;;;;;;9.33;7.50;;;11.00;39.00;;;;;;10383100;28;20340;-70
2024/03/13 00:59:49;;;;;;;8.77;7.87;;;11.00;38.70;;;;;;10378118;28;20778;-70
2024/03/13 01:04:54;;;;;;;8.93;7.77;;;11.00;38.60;;;;;;10346793;28;20317;-70
2024/03/13 01:10:00;;;;;;;9.10;8.20;;;11.00;38.80;;;;;;10339636;28;20234;-70
2024/03/13 01:15:04;;;;;;;8.87;7.97;;;11.00;38.70;;;;;;10336416;28;20272;-70
2024/03/13 01:20:15;;;;;;;8.77;7.47;;;10.90;38.70;;;;;;10335307;28;20708;-70
2024/03/13 01:25:19;;;;;;;9.43;7.53;;;10.90;39.00;;;;;;10340415;28;20233;-69
2024/03/13 01:30:23;;;;;;;7.90;7.10;;;10.80;38.70;;;;;;10336702;28;20308;-69
2024/03/13 01:35:28;;;;;;;8.03;7.17;;;10.80;38.80;;;;;;10336347;28;20223;-70
2024/03/13 01:56:59;;;;;;;8.67;7.23;;;10.60;39.30;;;;;;10343577;28;20258;-69
2024/03/13 02:07:26;;;;;;;8.33;7.37;;;10.60;39.10;;;;;;10334757;28;20229;-70
2024/03/13 02:12:30;;;;;;;9.00;7.73;;;10.50;39.60;;;;;;10344839;28;20821;-70
2024/03/13 02:17:38;;;;;;;10.03;7.33;;;10.50;39.30;;;;;;10350624;28;20238;-70
2024/03/13 02:22:43;;;;;;;8.23;7.37;;;10.50;40.40;;;;;;10346176;28;20715;-70
2024/03/13 02:27:51;;;;;;;8.67;7.77;;;10.40;39.80;;;;;;10341938;28;20227;-69
2024/03/13 02:32:56;;;;;;;8.87;7.20;;;10.40;40.30;;;;;;10351980;28;20230;-70
2024/03/13 02:38:03;;;;;;;8.17;7.37;;;10.30;40.20;;;;;;10385069;28;20272;-70
2024/03/13 02:43:06;;;;;;;8.93;7.57;;;10.30;39.90;;;;;;10390429;28;20221;-70
2024/03/13 02:48:11;;;;;;;7.70;6.90;;;10.30;40.20;;;;;;10370619;28;20578;-70
2024/03/13 02:53:15;;;;;;;8.93;8.03;;;10.30;40.10;;;;;;10383423;28;20333;-70
2024/03/13 02:58:18;;;;;;;8.70;7.80;;;10.30;40.10;;;;;;10373903;28;20347;-71
2024/03/13 03:03:21;;;;;;;9.10;7.57;;;10.30;40.20;;;;;;10378540;28;20221;-70
2024/03/13 03:08:25;;;;;;;10.10;8.27;;;10.30;40.20;;;;;;10378219;28;20228;-70
2024/03/13 03:13:28;;;;;;;9.60;8.60;;;10.30;40.20;;;;;;10383609;28;20337;-70
2024/03/13 03:18:31;;;;;;;8.67;7.70;;;10.30;40.20;;;;;;10383711;28;20236;-70
2024/03/13 03:23:35;;;;;;;10.57;8.77;;;10.30;40.20;;;;;;10384676;28;20815;-70
2024/03/13 03:28:38;;;;;;;8.63;7.27;;;10.20;40.10;;;;;;10383522;28;20257;-70
2024/03/13 03:33:41;;;;;;;9.67;7.90;;;10.20;40.10;;;;;;10384043;28;20243;-70
2024/03/13 03:38:47;;;;;;;10.40;7.03;;;10.10;40.00;;;;;;10382296;28;20233;-70
2024/03/13 03:43:51;;;;;;;9.20;7.17;;;10.10;40.00;;;;;;10384791;28;20305;-70
2024/03/13 03:48:54;;;;;;;7.70;6.80;;;10.10;40.00;;;;;;10374425;28;20812;-70
2024/03/13 03:53:57;;;;;;;7.50;6.67;;;10.10;40.00;;;;;;10373990;28;20229;-70
2024/03/13 03:59:01;;;;;;;7.13;6.37;;;10.00;39.90;;;;;;10380788;28;20330;-70
2024/03/13 04:04:04;;;;;;;7.83;7.03;;;10.00;39.90;;;;;;10369555;28;20321;-70
2024/03/13 04:09:15;;;;;;;6.50;5.90;;;10.00;40.10;;;;;;10383222;28;20233;-70
2024/03/13 04:14:18;;;;;;;8.80;6.40;;;10.00;40.30;;;;;;10381240;28;20242;-70
2024/03/13 04:19:23;;;;;;;6.60;5.93;;;10.00;40.50;;;;;;10380709;28;20690;-70
2024/03/13 04:24:26;;;;;;;7.40;6.70;;;10.00;40.40;;;;;;10381370;28;20222;-70
2024/03/13 04:29:29;;;;;;;6.97;6.27;;;10.00;40.30;;;;;;10383237;28;20304;-70
2024/03/13 04:34:45;;;;;;;7.23;6.53;;;10.10;40.50;;;;;;10368394;28;20221;-70
2024/03/13 04:39:48;;;;;;;8.07;6.67;;;10.20;40.20;;;;;;10386674;28;20304;-70
2024/03/13 04:44:51;;;;;;;7.13;6.33;;;10.20;40.10;;;;;;10382360;28;20643;-70
2024/03/13 04:49:54;;;;;;;7.40;6.70;;;10.10;40.20;;;;;;10379819;28;20229;-70
2024/03/13 04:54:58;;;;;;;6.97;6.27;;;10.20;40.10;;;;;;10377076;28;20230;-70
2024/03/13 05:00:01;;;;;;;7.10;6.40;;;10.10;40.10;;;;;;10365520;28;20230;-70
2024/03/13 05:05:06;;;;;;;7.60;6.80;;;10.10;40.30;;;;;;10364419;28;20236;-70
2024/03/13 05:10:09;;;;;;;8.83;7.27;;;10.10;40.40;;;;;;10381942;28;20253;-70
2024/03/13 05:15:13;;;;;;;7.77;7.00;;;10.10;40.30;;;;;;10372848;28;20233;-70
2024/03/13 05:20:17;;;;;;;6.50;5.90;;;10.10;40.30;;;;;;10334178;28;20720;-70
2024/03/13 05:25:22;;;;;;;6.50;5.80;;;10.10;40.40;;;;;;10348507;28;20317;-70
2024/03/13 05:30:25;;;;;;;5.23;4.80;;;10.10;40.50;;;;;;10349243;28;20250;-70
2024/03/13 05:35:28;;;;;;;4.27;3.87;;;10.00;40.40;;;;;;10351366;28;20249;-70
2024/03/13 05:40:32;;;;;;;4.10;3.70;;;10.00;40.40;;;;;;10344814;28;20746;-70
2024/03/13 05:45:36;;;;;;;2.90;2.70;;;9.90;41.50;;;;;;10352879;28;20257;-69
2024/03/13 05:50:39;;;;;;;4.10;3.80;;;9.80;41.50;;;;;;10381171;28;20328;-70
2024/03/13 05:55:43;;;;;;;2.97;2.73;;;9.70;41.70;;;;;;10388339;28;20605;-70
2024/03/13 06:00:46;;;;;;;6.17;5.33;;;9.60;41.80;;;;;;10383938;28;20724;-70
2024/03/13 06:05:51;;;;;;;6.57;5.23;;;9.50;41.60;;;;;;10392557;28;20283;-70
2024/03/13 06:10:54;;;;;;;2.37;2.17;;;9.50;41.70;;;;;;10392305;28;20252;-70
2024/03/13 06:15:58;;;;;;;1.90;1.80;;;9.50;41.70;;;;;;10374129;28;20222;-69
2024/03/13 06:21:03;;;;;;;1.33;1.20;;;9.40;41.70;;;;;;10385397;28;20260;-70
2024/03/13 06:26:07;;;;;;;1.33;1.23;;;9.40;41.90;;;;;;10390987;28;20234;-70
2024/03/13 06:31:11;;;;;;;1.57;1.40;;;9.30;41.70;;;;;;10387571;28;20237;-70
2024/03/13 06:36:15;;;;;;;1.17;1.07;;;9.30;41.80;;;;;;10372990;28;20701;-70
2024/03/13 06:41:18;;;;;;;1.37;1.00;;;9.30;41.90;;;;;;10375481;28;20229;-70
2024/03/13 06:46:23;;;;;;;1.03;0.90;;;9.20;41.80;;;;;;10386468;28;20720;-70
2024/03/13 06:51:26;;;;;;;0.97;0.90;;;9.20;42.00;;;;;;10385699;28;20792;-70
2024/03/13 06:56:30;;;;;;;1.70;1.43;;;9.20;42.00;;;;;;10384499;28;20233;-70
2024/03/13 07:01:36;;;;;;;1.50;1.40;;;9.20;42.20;;;;;;10383031;28;20319;-70
2024/03/13 07:06:41;;;;;;;1.50;1.40;;;9.20;42.30;;;;;;10382142;28;20223;-70
2024/03/13 07:11:44;;;;;;;1.50;1.40;;;9.20;42.30;;;;;;10381825;28;20628;-70
2024/03/13 07:16:48;;;;;;;2.33;1.40;;;9.30;42.50;;;;;;10373030;28;20387;-73
2024/03/13 07:21:52;;;;;;;1.37;1.20;;;9.30;42.60;;;;;;10366616;28;20239;-70
2024/03/13 07:26:56;;;;;;;2.10;1.00;;;9.40;42.50;;;;;;10383316;28;20226;-70
2024/03/13 07:31:59;;;;;;;3.63;1.67;;;9.50;42.70;;;;;;10380554;28;20242;-70
2024/03/13 07:37:03;;;;;;;2.30;1.27;;;9.70;42.60;;;;;;10370725;28;20313;-70
2024/03/13 07:42:06;;;;;;;0.90;0.83;;;9.90;42.60;;;;;;10385054;28;20244;-70
2024/03/13 07:47:10;;;;;;;0.90;0.80;;;10.00;41.30;;;;;;10383270;28;20729;-70
2024/03/13 07:52:13;;;;;;;0.80;0.80;;;10.10;41.50;;;;;;10382501;28;20978;-70
2024/03/13 07:57:16;;;;;;;3.90;1.37;;;10.30;41.10;;;;;;10382507;28;20225;-70
2024/03/13 08:02:19;;;;;;;1.37;1.20;;;10.50;40.70;;;;;;10382175;28;20256;-70
2024/03/13 08:07:26;;;;;;;0.90;0.90;;;10.60;40.50;;;;;;10383402;28;20225;-70
2024/03/13 08:12:46;;;;;;;1.20;1.10;;;10.60;40.40;;;;;;10386395;28;20251;-70
2024/03/13 08:18:10;;;;;;;0.70;0.70;;;10.60;40.10;;;;;;10376376;28;20237;-70
2024/03/13 08:23:30;;;;;;;1.93;1.50;;;10.60;39.80;;;;;;10371384;28;20222;-70
2024/03/13 08:28:51;;;;;;;1.93;1.17;;;10.50;40.40;;;;;;10385157;28;20229;-70
2024/03/13 08:34:14;;;;;;;0.80;0.80;;;10.50;40.10;;;;;;10369885;28;20225;-70
2024/03/13 08:39:35;;;;;;;1.17;0.90;;;10.50;40.30;;;;;;10381200;28;20233;-70
2024/03/13 08:44:55;;;;;;;0.93;0.93;;;10.50;40.40;;;;;;10382432;28;20707;-70
2024/03/13 08:50:18;;;;;;;1.80;1.30;;;10.60;40.20;;;;;;10383859;28;20229;-70
2024/03/13 08:55:39;;;;;;;1.00;0.90;;;10.70;40.30;;;;;;10371495;28;20707;-70
2024/03/13 09:01:01;;;;;;;1.67;0.90;;;10.80;40.10;;;;;;10378712;28;20289;-70
2024/03/13 09:06:21;;;;;;;1.00;1.00;;;10.70;40.00;;;;;;10368653;28;21796;-70
2024/03/13 09:11:24;;;;;;;1.10;0.90;;;10.70;40.10;;;;;;10363045;28;20225;-70
2024/03/13 09:16:28;;;;;;;0.93;0.90;;;10.70;40.10;;;;;;10378092;28;20229;-70
2024/03/13 09:21:31;;;;;;;1.90;1.10;;;10.80;40.30;;;;;;10338442;28;20229;-70
2024/03/13 09:26:35;;;;;;;1.03;1.03;;;10.80;40.20;;;;;;10340360;28;20721;-70
2024/03/13 09:31:41;;;;;;;0.90;0.90;;;10.80;40.20;;;;;;10333299;28;20284;-70
2024/03/13 09:36:45;;;;;;;0.93;0.90;;;10.80;40.50;;;;;;10364152;28;20330;-70
2024/03/13 09:41:48;;;;;;;1.20;1.00;;;10.80;40.20;;;;;;10356630;28;20741;-70
2024/03/13 09:46:51;;;;;;;0.90;0.90;;;10.90;40.30;;;;;;10356860;28;20276;-70
2024/03/13 09:51:59;;;;;;;0.80;0.80;;;10.90;40.30;;;;;;10349251;28;21143;-70
2024/03/13 09:57:02;;;;;;;1.20;1.10;;;11.00;40.40;;;;;;10347750;28;20720;-70
2024/03/13 10:02:07;;;;;;;1.70;1.60;;;11.00;40.00;;;;;;10358659;28;20237;-70
2024/03/13 10:07:10;;;;;;;1.40;1.30;;;11.10;40.00;;;;;;10369273;28;20750;-70
2024/03/13 10:12:14;;;;;;;1.90;1.30;;;11.10;40.10;;;;;;10389733;28;20248;-70
2024/03/13 10:17:18;;;;;;;1.00;1.00;;;11.10;40.10;;;;;;10361819;28;20253;-70
2024/03/13 10:22:22;;;;;;;2.00;1.80;;;11.20;40.30;;;;;;10372030;28;20261;-70
2024/03/13 10:27:26;;;;;;;1.37;1.30;;;11.20;40.60;;;;;;10389998;28;20261;-70
2024/03/13 10:32:36;;;;;;;1.33;1.23;;;11.20;40.40;;;;;;10384417;28;21115;-70
2024/03/13 10:37:41;;;;;;;1.30;1.20;;;11.30;40.30;;;;;;10385191;28;20778;-70
2024/03/13 10:42:47;;;;;;;0.90;0.90;;;11.30;40.70;;;;;;10387152;28;20601;-70
2024/03/13 10:47:51;;;;;;;1.00;0.90;;;11.40;40.90;;;;;;10383992;28;20222;-70
2024/03/13 10:52:54;;;;;;;0.90;0.90;;;11.50;40.40;;;;;;10386668;28;20785;-70
2024/03/13 10:57:59;;;;;;;1.00;1.00;;;11.60;40.50;;;;;;10371535;28;20222;-70
2024/03/13 11:03:02;;;;;;;0.83;0.83;;;11.70;40.40;;;;;;10370637;28;20602;-70
2024/03/13 11:08:07;;;;;;;1.10;1.00;;;11.80;40.40;;;;;;10383565;28;20307;-70
2024/03/13 11:13:10;;;;;;;0.83;0.80;;;11.90;40.30;;;;;;10384702;28;20230;-70
2024/03/13 11:18:15;;;;;;;1.30;1.00;;;11.90;40.30;;;;;;10372599;28;20236;-70
2024/03/13 11:23:19;;;;;;;0.90;0.90;;;12.00;40.10;;;;;;10372126;28;20237;-70
2024/03/13 11:28:22;;;;;;;1.00;1.00;;;12.20;40.70;;;;;;10385647;28;20614;-70
2024/03/13 11:33:25;;;;;;;1.00;1.00;;;12.30;39.80;;;;;;10370043;28;20252;-70
2024/03/13 11:38:29;;;;;;;1.00;1.00;;;12.30;39.80;;;;;;10384194;28;20231;-70
2024/03/13 11:43:33;;;;;;;1.20;1.10;;;12.30;39.90;;;;;;10343616;28;20231;-70
2024/03/13 11:48:36;;;;;;;1.20;1.20;;;12.40;40.20;;;;;;10342544;28;20782;-70
2024/03/13 11:53:41;;;;;;;1.50;1.40;;;12.40;39.90;;;;;;10337823;28;20218;-70
2024/03/13 11:58:44;;;;;;;1.20;1.20;;;12.60;40.50;;;;;;10337780;28;20234;-70
2024/03/13 12:03:48;;;;;;;1.47;1.37;;;12.60;39.80;;;;;;10341025;28;20237;-70
2024/03/13 12:08:53;;;;;;;1.60;1.50;;;12.70;39.80;;;;;;10338170;28;20647;-70
2024/03/13 12:13:56;;;;;;;1.57;1.50;;;12.80;39.60;;;;;;10338448;28;20319;-70
2024/03/13 12:18:59;;;;;;;1.80;1.70;;;12.80;39.60;;;;;;10339363;28;20319;-70
2024/03/13 12:24:03;;;;;;;1.60;1.50;;;12.90;39.30;;;;;;10341372;28;20226;-70
2024/03/13 12:29:06;;;;;;;2.07;1.90;;;12.90;39.10;;;;;;10351875;28;20241;-70
2024/03/13 12:34:10;;;;;;;1.53;1.43;;;13.00;39.50;;;;;;10385636;28;20230;-70
2024/03/13 12:39:17;;;;;;;1.67;1.57;;;13.10;39.30;;;;;;10380325;28;20234;-70
2024/03/13 12:44:20;;;;;;;1.90;1.80;;;13.10;39.40;;;;;;10371192;28;20225;-70
2024/03/13 12:49:23;;;;;;;1.73;1.63;;;13.20;39.30;;;;;;10334979;28;20234;-70
2024/03/13 12:54:27;;;;;;;2.07;1.87;;;13.20;39.10;;;;;;10329344;28;20226;-70
2024/03/13 12:59:31;;;;;;;2.07;1.97;;;13.30;39.10;;;;;;10340416;28;20230;-70
2024/03/13 13:04:35;;;;;;;2.00;1.90;;;13.30;39.20;;;;;;10341575;28;20218;-70
2024/03/13 13:09:38;;;;;;;2.23;2.13;;;13.30;39.00;;;;;;10339454;28;20245;-70
2024/03/13 13:14:41;;;;;;;2.30;2.10;;;13.40;39.00;;;;;;10326148;28;20228;-70
2024/03/13 13:19:44;;;;;;;2.17;1.97;;;13.40;39.20;;;;;;10329083;28;20222;-70
2024/03/13 13:24:48;;;;;;;4.17;3.77;;;13.40;39.10;;;;;;10331903;28;20218;-70
2024/03/13 13:29:51;;;;;;;2.47;2.27;;;13.50;39.10;;;;;;10330680;28;20237;-70
2024/03/13 13:34:54;;;;;;;2.00;1.90;;;13.50;39.10;;;;;;10331757;28;20230;-70
2024/03/13 13:39:57;;;;;;;1.90;1.80;;;13.50;38.90;;;;;;10324758;28;20804;-70
2024/03/13 13:45:01;;;;;;;4.73;2.67;;;13.60;39.20;;;;;;10325120;28;20848;-70
2024/03/13 13:50:09;;;;;;;2.30;2.20;;;13.60;39.00;;;;;;10345279;28;20223;-70
2024/03/13 13:55:13;;;;;;;2.10;2.00;;;13.70;39.10;;;;;;10342268;28;20235;-70
2024/03/13 14:00:17;;;;;;;2.47;2.30;;;13.80;39.20;;;;;;10321296;28;20234;-70
2024/03/13 14:05:20;;;;;;;2.03;1.90;;;13.80;39.00;;;;;;10338640;28;20238;-70
2024/03/13 14:10:24;;;;;;;2.23;2.13;;;13.80;39.00;;;;;;10337880;28;20238;-70
2024/03/13 14:15:27;;;;;;;2.40;2.20;;;13.90;39.00;;;;;;10332986;28;20720;-70
2024/03/13 14:20:31;;;;;;;2.50;2.40;;;13.90;39.30;;;;;;10334151;28;20238;-70
2024/03/13 14:25:35;;;;;;;2.77;2.57;;;13.90;39.00;;;;;;10340686;28;20226;-70
2024/03/13 14:30:38;;;;;;;3.27;3.07;;;14.00;39.20;;;;;;10340690;28;20386;-70
2024/03/13 14:35:41;;;;;;;4.63;2.63;;;14.00;39.10;;;;;;10336516;28;20231;-70
2024/03/13 14:40:48;;;;;;;2.40;2.30;;;14.00;39.00;;;;;;10345654;28;20313;-70
2024/03/13 14:45:51;;;;;;;2.33;2.13;;;14.10;39.00;;;;;;10355161;28;20894;-70
2024/03/13 14:50:54;;;;;;;2.47;2.27;;;14.10;38.90;;;;;;10382169;28;20230;-70
2024/03/13 14:55:58;;;;;;;2.43;2.33;;;14.10;38.90;;;;;;10369483;28;20727;-70
2024/03/13 15:01:01;;;;;;;4.37;3.60;;;14.10;39.20;;;;;;10371430;28;20233;-71
2024/03/13 15:06:06;;;;;;;2.57;2.47;;;14.10;39.60;;;;;;10362732;28;20218;-70
2024/03/13 15:11:09;;;;;;;2.20;2.10;;;14.20;39.30;;;;;;10383831;28;20695;-70
2024/03/13 15:16:13;;;;;;;2.63;2.50;;;14.20;39.20;;;;;;10366851;28;20222;-71
2024/03/13 15:21:16;;;;;;;10.63;9.37;;;14.20;39.10;;;;;;10385425;28;20248;-70
2024/03/13 15:26:20;;;;;;;3.20;3.00;;;14.20;39.20;;;;;;10365722;28;20564;-70
2024/03/13 15:31:25;;;;;;;2.57;2.37;;;14.30;39.30;;;;;;10381800;28;20238;-71
2024/03/13 15:36:28;;;;;;;2.67;2.40;;;14.30;39.20;;;;;;10368591;28;20230;-70
2024/03/13 15:41:31;;;;;;;2.60;2.50;;;14.30;39.10;;;;;;10378859;28;20234;-70
2024/03/13 15:46:35;;;;;;;2.50;2.30;;;14.40;39.00;;;;;;10384639;28;20226;-70
2024/03/13 15:51:38;;;;;;;2.53;2.33;;;14.40;38.90;;;;;;10385875;28;20233;-70
2024/03/13 15:56:42;;;;;;;2.33;2.23;;;14.40;39.10;;;;;;10380687;28;20858;-70
2024/03/13 16:01:45;;;;;;;2.43;2.23;;;14.30;39.00;;;;;;10367876;28;20226;-70
2024/03/13 16:06:48;;;;;;;2.93;2.63;;;14.30;39.30;;;;;;10373103;28;20741;-71
2024/03/13 16:11:52;;;;;;;2.37;2.20;;;14.20;39.40;;;;;;10380882;28;20737;-71
2024/03/13 16:16:57;;;;;;;3.23;2.83;;;14.10;39.40;;;;;;10382099;28;20337;-70
2024/03/13 16:22:00;;;;;;;2.13;2.03;;;14.10;39.70;;;;;;10368919;28;20790;-71
2024/03/13 16:27:04;;;;;;;2.17;2.07;;;14.00;39.70;;;;;;10366256;28;20237;-70
2024/03/13 16:32:07;;;;;;;2.70;2.50;;;14.00;39.80;;;;;;10383273;28;20226;-70
2024/03/13 16:37:12;;;;;;;2.83;2.63;;;14.00;40.00;;;;;;10377584;28;20249;-70
2024/03/13 16:42:15;;;;;;;3.10;2.90;;;14.00;40.10;;;;;;10362944;28;20796;-70
2024/03/13 16:47:19;;;;;;;2.70;2.50;;;14.10;40.00;;;;;;10383078;28;20233;-71
2024/03/13 16:52:22;;;;;;;3.47;3.17;;;14.10;40.00;;;;;;10367361;28;20825;-72
2024/03/13 16:57:26;;;;;;;2.50;2.37;;;14.10;39.90;;;;;;10369648;28;20234;-72
2024/03/13 17:02:29;;;;;;;2.87;2.67;;;14.10;39.90;;;;;;10378466;28;20861;-71
2024/03/13 17:07:32;;;;;;;2.90;2.70;;;14.10;40.00;;;;;;10371500;28;20338;-71
2024/03/13 17:12:35;;;;;;;3.27;2.97;;;14.10;40.10;;;;;;10386639;28;20575;-71
2024/03/13 17:17:39;;;;;;;3.33;3.13;;;14.20;40.10;;;;;;10374112;28;21206;-72
2024/03/13 17:22:42;;;;;;;2.80;2.60;;;14.30;40.10;;;;;;10376196;28;20241;-71
2024/03/13 17:27:45;;;;;;;4.80;4.40;;;14.30;39.90;;;;;;10378068;28;20230;-71
2024/03/13 17:32:49;;;;;;;13.00;11.07;;;14.30;39.90;;;;;;10360777;28;20229;-72
2024/03/13 17:37:53;;;;;;;5.67;5.17;;;14.30;39.90;;;;;;10374546;28;20307;-72
2024/03/13 17:42:56;;;;;;;4.60;4.30;;;14.30;40.10;;;;;;10367425;28;20303;-72
2024/03/13 17:48:00;;;;;;;4.73;4.07;;;14.30;40.30;;;;;;10361973;28;20229;-71
2024/03/13 17:53:05;;;;;;;5.73;4.40;;;14.30;40.60;;;;;;10362267;28;20807;-71
2024/03/13 17:58:09;;;;;;;4.23;3.93;;;14.30;40.70;;;;;;10365137;28;20321;-71
2024/03/13 18:03:12;;;;;;;4.30;4.00;;;14.30;40.70;;;;;;10367122;28;20234;-71
2024/03/13 18:08:17;;;;;;;4.03;3.73;;;14.40;40.80;;;;;;10364525;28;20733;-71
2024/03/13 18:13:20;;;;;;;4.00;3.80;;;14.40;40.60;;;;;;10362330;28;20850;-72
2024/03/13 18:18:32;;;;;;;5.33;4.83;;;14.40;40.60;;;;;;10362802;28;20522;-72
2024/03/13 18:23:36;;;;;;;5.67;5.17;;;14.40;40.50;;;;;;10368922;28;20350;-72
2024/03/13 18:28:40;;;;;;;5.53;5.03;;;14.30;40.50;;;;;;10365892;28;20229;-72
2024/03/13 18:33:44;;;;;;;5.33;5.00;;;14.20;40.70;;;;;;10376644;28;20237;-72
2024/03/13 18:38:48;;;;;;;4.97;4.57;;;14.10;40.80;;;;;;10358435;28;20634;-72
2024/03/13 18:43:52;;;;;;;5.00;4.60;;;14.10;41.00;;;;;;10357532;28;21178;-71
2024/03/13 18:48:56;;;;;;;4.50;4.10;;;14.10;41.30;;;;;;10355119;28;20993;-72
2024/03/13 18:54:01;;;;;;;4.13;3.83;;;14.10;41.30;;;;;;10376734;28;20317;-72
2024/03/13 18:59:05;;;;;;;4.43;4.03;;;14.20;41.40;;;;;;10353682;28;20602;-71
2024/03/13 19:04:10;;;;;;;4.50;4.20;;;14.10;41.30;;;;;;10347215;28;20238;-72
2024/03/13 19:09:15;;;;;;;4.17;3.87;;;14.10;41.30;;;;;;10337113;28;20322;-72
2024/03/13 19:14:18;;;;;;;4.23;3.93;;;14.10;41.30;;;;;;10350757;28;20855;-72
2024/03/13 19:19:22;;;;;;;5.43;5.03;;;14.10;41.40;;;;;;10376073;28;20510;-72
2024/03/13 19:24:28;;;;;;;6.43;5.93;;;14.10;41.40;;;;;;10375290;28;20237;-72
2024/03/13 19:29:31;;;;;;;6.43;6.00;;;14.10;41.40;;;;;;10340941;28;20222;-72
2024/03/13 19:34:34;;;;;;;7.07;6.47;;;14.10;41.50;;;;;;10333936;28;20912;-72
2024/03/13 19:39:40;;;;;;;5.70;5.30;;;14.00;41.60;;;;;;10332282;28;20534;-72
2024/03/13 19:44:44;;;;;;;5.87;5.27;;;13.90;41.70;;;;;;10333665;28;20232;-72
2024/03/13 19:49:47;;;;;;;5.40;5.00;;;13.80;41.80;;;;;;10333675;28;20277;-72
2024/03/13 19:54:50;;;;;;;5.53;5.13;;;13.80;42.00;;;;;;10320300;28;20313;-72
2024/03/13 19:59:54;;;;;;;6.20;5.67;;;13.70;42.10;;;;;;10328653;28;20234;-72
2024/03/13 20:04:57;;;;;;;5.80;5.30;;;13.70;42.40;;;;;;10330153;28;20309;-72
2024/03/13 20:10:01;;;;;;;6.30;5.80;;;13.70;42.60;;;;;;10320531;28;20231;-72
2024/03/13 20:15:05;;;;;;;6.17;5.67;;;13.70;42.70;;;;;;10330579;28;20614;-71
2024/03/13 20:20:11;;;;;;;6.50;5.90;;;13.70;42.90;;;;;;10327145;28;20229;-72
2024/03/13 20:25:15;;;;;;;6.60;5.97;;;13.70;43.00;;;;;;10336977;28;20366;-72
2024/03/13 20:30:18;;;;;;;8.37;7.63;;;13.60;43.10;;;;;;10313231;28;20341;-72
2024/03/13 20:35:22;;;;;;;6.60;6.03;;;13.70;43.20;;;;;;10335661;28;20325;-72
2024/03/13 20:40:25;;;;;;;7.80;7.10;;;13.70;43.20;;;;;;10334394;28;20231;-72
2024/03/13 20:45:29;;;;;;;7.50;6.90;;;13.80;43.30;;;;;;10328094;28;20241;-72
2024/03/13 20:50:32;;;;;;;6.20;5.70;;;13.70;43.20;;;;;;10319352;28;20231;-72
2024/03/13 20:55:35;;;;;;;6.50;6.00;;;13.70;43.20;;;;;;10326176;28;20236;-72
2024/03/13 21:00:41;;;;;;;5.87;5.47;;;13.70;43.20;;;;;;10330398;28;20233;-72
2024/03/13 21:05:45;;;;;;;6.00;5.60;;;13.60;43.10;;;;;;10329019;28;20234;-72
2024/03/13 21:10:48;;;;;;;6.53;6.03;;;13.50;43.00;;;;;;10328065;28;20262;-72
2024/03/13 21:15:52;;;;;;;5.90;5.50;;;13.40;42.90;;;;;;10329760;28;20332;-72
2024/03/13 21:21:03;;;;;;;6.13;5.73;;;13.40;43.10;;;;;;10338201;28;20226;-71
2024/03/13 21:26:07;;;;;;;5.20;4.90;;;13.30;43.40;;;;;;10330025;28;20235;-72
2024/03/13 21:31:11;;;;;;;5.97;5.57;;;13.30;43.60;;;;;;10329614;28;20235;-72
2024/03/13 21:36:14;;;;;;;6.00;5.60;;;13.30;43.70;;;;;;10333794;28;20237;-72
2024/03/13 21:41:19;;;;;;;4.87;4.57;;;13.20;43.90;;;;;;10373026;28;20765;-72
2024/03/13 21:46:23;;;;;;;6.27;5.77;;;13.20;43.90;;;;;;10378706;28;20602;-72
2024/03/13 21:51:27;;;;;;;6.33;5.93;;;13.20;44.00;;;;;;10364336;28;20225;-72
2024/03/13 21:56:31;;;;;;;6.17;5.77;;;13.20;44.10;;;;;;10336609;28;20281;-72
2024/03/13 22:01:34;;;;;;;6.20;5.70;;;13.20;44.30;;;;;;10344012;28;20720;-72
2024/03/13 22:06:37;;;;;;;5.77;5.47;;;13.10;44.30;;;;;;10343753;28;20249;-72
2024/03/13 22:11:41;;;;;;;5.77;5.37;;;13.20;44.40;;;;;;10340758;28;20238;-72
2024/03/13 22:16:45;;;;;;;6.00;5.53;;;13.20;44.50;;;;;;10333818;28;20233;-72
2024/03/13 22:21:48;;;;;;;6.60;6.00;;;13.30;44.40;;;;;;10341259;28;20226;-72
2024/03/13 22:26:52;;;;;;;6.60;6.20;;;13.40;44.30;;;;;;10345355;28;20215;-72
2024/03/13 22:31:55;;;;;;;6.70;6.20;;;13.40;44.10;;;;;;10343176;28;20238;-71
2024/03/13 22:36:58;;;;;;;6.43;6.00;;;13.40;44.10;;;;;;10344984;28;20222;-72
2024/03/13 22:42:01;;;;;;;6.40;5.80;;;13.40;44.10;;;;;;10331920;28;20235;-71
2024/03/13 22:47:05;;;;;;;6.67;6.27;;;13.40;44.30;;;;;;10353976;28;20338;-71
2024/03/13 22:52:08;;;;;;;6.87;6.37;;;13.40;44.30;;;;;;10381098;28;20245;-72
2024/03/13 22:57:15;;;;;;;7.00;6.50;;;13.40;44.30;;;;;;10379560;28;20321;-72
2024/03/13 23:02:19;;;;;;;6.93;6.43;;;13.40;44.30;;;;;;10373979;28;20234;-72
2024/03/13 23:07:22;;;;;;;6.90;6.40;;;13.40;45.10;;;;;;10332491;28;20254;-72
2024/03/13 23:12:26;;;;;;;7.53;6.93;;;13.40;44.30;;;;;;10343186;28;20222;-72
2024/03/13 23:17:30;;;;;;;7.27;6.60;;;13.50;44.40;;;;;;10332460;28;20230;-72
2024/03/13 23:22:33;;;;;;;7.30;6.80;;;13.40;44.40;;;;;;10380874;28;20658;-72
2024/03/13 23:27:37;;;;;;;7.90;7.30;;;13.40;44.50;;;;;;10371714;28;20671;-71
2024/03/13 23:32:40;;;;;;;7.07;6.57;;;13.40;44.50;;;;;;10347107;28;20229;-71
2024/03/13 23:37:43;;;;;;;7.33;6.80;;;13.40;44.50;;;;;;10341001;28;20233;-72
2024/03/13 23:42:48;;;;;;;7.37;6.80;;;13.40;44.50;;;;;;10355761;28;20237;-72
2024/03/13 23:47:51;;;;;;;6.93;6.37;;;13.40;44.50;;;;;;10374324;28;20234;-72
2024/03/13 23:52:55;;;;;;;7.20;6.70;;;13.40;44.60;;;;;;10370351;28;20222;-72
2024/03/13 23:57:59;;;;;;;7.67;7.07;;;13.40;44.60;;;;;;10351290;28;20718;-72
